sensor_id;sensor_type;location;lat;lon;timestamp;P1;durP1;ratioP1;P2;durP2;ratioP2
60819;SDS011;46641;48.904;9.126;2022-11-20T00:04:21;10.45;;;8.32;;
60819;SDS011;46641;48.904;9.126;2022-11-20T00:09:11;11.40;;;7.80;;
60819;SDS011;46641;48.904;9.126;2022-11-20T00:14:01;11.80;;;8.77;;
60819;SDS011;46641;48.904;9.126;2022-11-20T00:18:52;9.40;;;7.17;;
60819;SDS011;46641;48.904;9.126;2022-11-20T00:23:43;9.30;;;8.33;;
60819;SDS011;46641;48.904;9.126;2022-11-20T00:28:33;10.00;;;8.50;;
60819;SDS011;46641;48.904;9.126;2022-11-20T00:33:24;11.07;;;8.23;;
60819;SDS011;46641;48.904;9.126;2022-11-20T00:38:14;8.48;;;7.57;;
60819;SDS011;46641;48.904;9.126;2022-11-20T00:43:04;10.23;;;8.20;;
60819;SDS011;46641;48.904;9.126;2022-11-20T00:47:55;11.47;;;7.17;;
60819;SDS011;46641;48.904;9.126;2022-11-20T00:52:45;12.23;;;8.35;;
60819;SDS011;46641;48.904;9.126;2022-11-20T00:57:35;12.68;;;7.38;;
60819;SDS011;46641;48.904;9.126;2022-11-20T01:02:25;11.98;;;7.18;;
60819;SDS011;46641;48.904;9.126;2022-11-20T01:07:16;11.90;;;7.68;;
60819;SDS011;46641;48.904;9.126;2022-11-20T01:12:06;11.77;;;9.10;;
60819;SDS011;46641;48.904;9.126;2022-11-20T01:16:56;12.85;;;8.82;;
60819;SDS011;46641;48.904;9.126;2022-11-20T01:21:51;12.40;;;8.20;;
60819;SDS011;46641;48.904;9.126;2022-11-20T01:26:43;12.40;;;8.13;;
60819;SDS011;46641;48.904;9.126;2022-11-20T01:31:36;10.43;;;8.27;;
60819;SDS011;46641;48.904;9.126;2022-11-20T01:36:28;9.23;;;8.10;;
60819;SDS011;46641;48.904;9.126;2022-11-20T01:41:20;10.03;;;7.80;;
60819;SDS011;46641;48.904;9.126;2022-11-20T01:46:35;8.00;;;7.17;;
60819;SDS011;46641;48.904;9.126;2022-11-20T01:56:42;7.57;;;6.57;;
60819;SDS011;46641;48.904;9.126;2022-11-20T02:01:34;8.10;;;6.97;;
60819;SDS011;46641;48.904;9.126;2022-11-20T02:11:18;8.13;;;6.73;;
60819;SDS011;46641;48.904;9.126;2022-11-20T02:16:09;7.47;;;6.13;;
60819;SDS011;46641;48.904;9.126;2022-11-20T02:21:05;6.13;;;5.53;;
60819;SDS011;46641;48.904;9.126;2022-11-20T02:25:59;6.43;;;5.83;;
60819;SDS011;46641;48.904;9.126;2022-11-20T02:30:53;8.50;;;7.13;;
60819;SDS011;46641;48.904;9.126;2022-11-20T02:35:45;6.88;;;6.13;;
60819;SDS011;46641;48.904;9.126;2022-11-20T02:40:36;5.37;;;4.07;;
60819;SDS011;46641;48.904;9.126;2022-11-20T02:45:26;5.33;;;4.50;;
60819;SDS011;46641;48.904;9.126;2022-11-20T02:50:17;2.93;;;2.60;;
60819;SDS011;46641;48.904;9.126;2022-11-20T02:55:07;2.50;;;2.30;;
60819;SDS011;46641;48.904;9.126;2022-11-20T02:59:58;2.30;;;2.10;;
60819;SDS011;46641;48.904;9.126;2022-11-20T03:04:48;2.60;;;2.30;;
60819;SDS011;46641;48.904;9.126;2022-11-20T03:09:38;2.58;;;2.38;;
60819;SDS011;46641;48.904;9.126;2022-11-20T03:14:29;2.83;;;2.43;;
60819;SDS011;46641;48.904;9.126;2022-11-20T03:19:19;3.03;;;2.17;;
60819;SDS011;46641;48.904;9.126;2022-11-20T03:24:09;2.67;;;2.47;;
60819;SDS011;46641;48.904;9.126;2022-11-20T03:29:01;1.97;;;1.80;;
60819;SDS011;46641;48.904;9.126;2022-11-20T03:33:52;1.77;;;1.67;;
60819;SDS011;46641;48.904;9.126;2022-11-20T03:38:43;3.20;;;2.27;;
60819;SDS011;46641;48.904;9.126;2022-11-20T03:43:34;2.50;;;2.30;;
60819;SDS011;46641;48.904;9.126;2022-11-20T03:48:25;2.30;;;1.97;;
60819;SDS011;46641;48.904;9.126;2022-11-20T03:53:16;2.93;;;2.37;;
60819;SDS011;46641;48.904;9.126;2022-11-20T03:58:07;2.40;;;2.20;;
60819;SDS011;46641;48.904;9.126;2022-11-20T04:02:58;2.30;;;2.10;;
60819;SDS011;46641;48.904;9.126;2022-11-20T04:07:49;2.27;;;2.07;;
60819;SDS011;46641;48.904;9.126;2022-11-20T04:12:39;2.40;;;2.20;;
60819;SDS011;46641;48.904;9.126;2022-11-20T04:17:29;2.50;;;2.30;;
60819;SDS011;46641;48.904;9.126;2022-11-20T04:22:20;2.42;;;2.22;;
60819;SDS011;46641;48.904;9.126;2022-11-20T04:27:10;2.75;;;2.40;;
60819;SDS011;46641;48.904;9.126;2022-11-20T04:32:00;4.27;;;2.57;;
60819;SDS011;46641;48.904;9.126;2022-11-20T04:36:51;2.83;;;2.47;;
60819;SDS011;46641;48.904;9.126;2022-11-20T04:41:41;3.63;;;2.57;;
60819;SDS011;46641;48.904;9.126;2022-11-20T04:46:41;2.73;;;2.53;;
60819;SDS011;46641;48.904;9.126;2022-11-20T04:51:32;2.70;;;2.50;;
60819;SDS011;46641;48.904;9.126;2022-11-20T04:56:24;2.40;;;2.20;;
60819;SDS011;46641;48.904;9.126;2022-11-20T05:01:18;2.40;;;2.20;;
60819;SDS011;46641;48.904;9.126;2022-11-20T05:06:11;2.80;;;2.27;;
60819;SDS011;46641;48.904;9.126;2022-11-20T05:11:04;2.80;;;2.60;;
60819;SDS011;46641;48.904;9.126;2022-11-20T05:16:00;2.47;;;2.27;;
60819;SDS011;46641;48.904;9.126;2022-11-20T05:20:56;2.50;;;2.30;;
60819;SDS011;46641;48.904;9.126;2022-11-20T05:25:47;2.23;;;2.10;;
60819;SDS011;46641;48.904;9.126;2022-11-20T05:30:37;2.00;;;1.80;;
60819;SDS011;46641;48.904;9.126;2022-11-20T05:35:28;2.15;;;2.03;;
60819;SDS011;46641;48.904;9.126;2022-11-20T05:40:18;2.17;;;2.03;;
60819;SDS011;46641;48.904;9.126;2022-11-20T05:45:08;2.30;;;2.10;;
60819;SDS011;46641;48.904;9.126;2022-11-20T05:49:59;2.70;;;2.50;;
60819;SDS011;46641;48.904;9.126;2022-11-20T05:54:49;2.40;;;2.20;;
60819;SDS011;46641;48.904;9.126;2022-11-20T05:59:39;2.55;;;2.15;;
60819;SDS011;46641;48.904;9.126;2022-11-20T06:04:29;1.90;;;1.80;;
60819;SDS011;46641;48.904;9.126;2022-11-20T06:09:20;2.50;;;2.30;;
60819;SDS011;46641;48.904;9.126;2022-11-20T06:14:10;2.80;;;2.60;;
60819;SDS011;46641;48.904;9.126;2022-11-20T06:19:00;2.72;;;2.30;;
60819;SDS011;46641;48.904;9.126;2022-11-20T06:23:51;2.70;;;2.50;;
60819;SDS011;46641;48.904;9.126;2022-11-20T06:28:42;2.37;;;2.17;;
60819;SDS011;46641;48.904;9.126;2022-11-20T06:33:33;2.00;;;1.90;;
60819;SDS011;46641;48.904;9.126;2022-11-20T06:38:24;2.63;;;2.30;;
60819;SDS011;46641;48.904;9.126;2022-11-20T06:43:15;1.93;;;1.83;;
60819;SDS011;46641;48.904;9.126;2022-11-20T06:48:06;2.63;;;2.20;;
60819;SDS011;46641;48.904;9.126;2022-11-20T06:52:56;2.13;;;1.90;;
60819;SDS011;46641;48.904;9.126;2022-11-20T06:57:50;2.10;;;1.90;;
60819;SDS011;46641;48.904;9.126;2022-11-20T07:02:40;2.27;;;2.07;;
60819;SDS011;46641;48.904;9.126;2022-11-20T07:07:31;2.30;;;2.10;;
60819;SDS011;46641;48.904;9.126;2022-11-20T07:12:21;2.60;;;2.00;;
60819;SDS011;46641;48.904;9.126;2022-11-20T07:17:11;2.40;;;1.85;;
60819;SDS011;46641;48.904;9.126;2022-11-20T07:22:02;2.53;;;2.33;;
60819;SDS011;46641;48.904;9.126;2022-11-20T07:26:52;2.40;;;2.20;;
60819;SDS011;46641;48.904;9.126;2022-11-20T07:31:42;3.80;;;2.00;;
60819;SDS011;46641;48.904;9.126;2022-11-20T07:36:33;2.47;;;2.23;;
60819;SDS011;46641;48.904;9.126;2022-11-20T07:41:23;2.20;;;2.00;;
60819;SDS011;46641;48.904;9.126;2022-11-20T07:46:13;2.60;;;2.10;;
60819;SDS011;46641;48.904;9.126;2022-11-20T07:51:04;1.80;;;1.70;;
60819;SDS011;46641;48.904;9.126;2022-11-20T07:55:54;2.77;;;2.10;;
60819;SDS011;46641;48.904;9.126;2022-11-20T08:00:44;1.93;;;1.70;;
60819;SDS011;46641;48.904;9.126;2022-11-20T08:05:35;1.90;;;1.80;;
60819;SDS011;46641;48.904;9.126;2022-11-20T08:10:25;1.50;;;1.40;;
60819;SDS011;46641;48.904;9.126;2022-11-20T08:15:15;2.15;;;1.48;;
60819;SDS011;46641;48.904;9.126;2022-11-20T08:20:06;2.00;;;1.67;;
60819;SDS011;46641;48.904;9.126;2022-11-20T08:24:57;2.13;;;1.73;;
60819;SDS011;46641;48.904;9.126;2022-11-20T08:29:47;1.50;;;1.40;;
60819;SDS011;46641;48.904;9.126;2022-11-20T08:34:37;1.45;;;1.35;;
60819;SDS011;46641;48.904;9.126;2022-11-20T08:39:28;1.20;;;1.10;;
60819;SDS011;46641;48.904;9.126;2022-11-20T08:44:18;0.83;;;0.83;;
60819;SDS011;46641;48.904;9.126;2022-11-20T08:49:10;0.77;;;0.77;;
60819;SDS011;46641;48.904;9.126;2022-11-20T08:54:02;0.97;;;0.87;;
60819;SDS011;46641;48.904;9.126;2022-11-20T08:58:52;0.90;;;0.90;;
60819;SDS011;46641;48.904;9.126;2022-11-20T09:03:42;1.17;;;0.70;;
60819;SDS011;46641;48.904;9.126;2022-11-20T09:08:33;1.00;;;0.90;;
60819;SDS011;46641;48.904;9.126;2022-11-20T09:13:26;0.70;;;0.70;;
60819;SDS011;46641;48.904;9.126;2022-11-20T09:18:17;0.80;;;0.80;;
60819;SDS011;46641;48.904;9.126;2022-11-20T09:23:08;1.48;;;0.98;;
60819;SDS011;46641;48.904;9.126;2022-11-20T09:27:58;0.57;;;0.57;;
60819;SDS011;46641;48.904;9.126;2022-11-20T09:32:49;0.80;;;0.80;;
60819;SDS011;46641;48.904;9.126;2022-11-20T09:37:40;0.80;;;0.80;;
60819;SDS011;46641;48.904;9.126;2022-11-20T09:42:41;0.70;;;0.70;;
60819;SDS011;46641;48.904;9.126;2022-11-20T09:47:48;1.33;;;0.90;;
60819;SDS011;46641;48.904;9.126;2022-11-20T09:57:54;0.70;;;0.70;;
60819;SDS011;46641;48.904;9.126;2022-11-20T10:02:48;1.30;;;1.20;;
60819;SDS011;46641;48.904;9.126;2022-11-20T10:13:08;1.60;;;1.50;;
60819;SDS011;46641;48.904;9.126;2022-11-20T10:18:23;1.93;;;1.77;;
60819;SDS011;46641;48.904;9.126;2022-11-20T10:23:30;1.80;;;1.70;;
60819;SDS011;46641;48.904;9.126;2022-11-20T10:28:39;1.60;;;1.40;;
60819;SDS011;46641;48.904;9.126;2022-11-20T10:33:52;1.47;;;1.10;;
60819;SDS011;46641;48.904;9.126;2022-11-20T10:38:48;1.17;;;1.13;;
60819;SDS011;46641;48.904;9.126;2022-11-20T10:43:44;1.10;;;1.10;;
60819;SDS011;46641;48.904;9.126;2022-11-20T10:48:35;0.93;;;0.93;;
60819;SDS011;46641;48.904;9.126;2022-11-20T11:03:24;3.33;;;2.00;;
60819;SDS011;46641;48.904;9.126;2022-11-20T11:08:17;2.40;;;2.17;;
60819;SDS011;46641;48.904;9.126;2022-11-20T11:13:22;1.90;;;1.80;;
60819;SDS011;46641;48.904;9.126;2022-11-20T11:18:30;3.03;;;1.80;;
60819;SDS011;46641;48.904;9.126;2022-11-20T11:28:29;3.03;;;1.97;;
60819;SDS011;46641;48.904;9.126;2022-11-20T11:38:16;3.23;;;1.93;;
60819;SDS011;46641;48.904;9.126;2022-11-20T11:43:19;1.93;;;1.80;;
60819;SDS011;46641;48.904;9.126;2022-11-20T11:48:32;1.47;;;1.37;;
60819;SDS011;46641;48.904;9.126;2022-11-20T11:53:23;2.20;;;1.70;;
60819;SDS011;46641;48.904;9.126;2022-11-20T12:03:24;2.93;;;1.70;;
60819;SDS011;46641;48.904;9.126;2022-11-20T12:18:49;2.67;;;1.47;;
60819;SDS011;46641;48.904;9.126;2022-11-20T12:29:02;2.90;;;1.50;;
60819;SDS011;46641;48.904;9.126;2022-11-20T12:34:18;1.33;;;1.20;;
60819;SDS011;46641;48.904;9.126;2022-11-20T12:39:32;1.30;;;1.20;;
60819;SDS011;46641;48.904;9.126;2022-11-20T12:50:02;1.50;;;1.23;;
60819;SDS011;46641;48.904;9.126;2022-11-20T12:55:03;1.33;;;1.20;;
60819;SDS011;46641;48.904;9.126;2022-11-20T13:09:58;4.33;;;2.30;;
60819;SDS011;46641;48.904;9.126;2022-11-20T13:19:47;2.30;;;1.50;;
60819;SDS011;46641;48.904;9.126;2022-11-20T13:24:49;3.03;;;1.43;;
60819;SDS011;46641;48.904;9.126;2022-11-20T13:29:42;2.57;;;1.40;;
60819;SDS011;46641;48.904;9.126;2022-11-20T13:34:34;1.33;;;1.20;;
60819;SDS011;46641;48.904;9.126;2022-11-20T13:39:32;1.30;;;1.20;;
60819;SDS011;46641;48.904;9.126;2022-11-20T13:49:18;0.93;;;0.90;;
60819;SDS011;46641;48.904;9.126;2022-11-20T13:59:49;1.43;;;0.83;;
60819;SDS011;46641;48.904;9.126;2022-11-20T14:04:48;1.63;;;1.03;;
60819;SDS011;46641;48.904;9.126;2022-11-20T14:09:49;2.00;;;1.00;;
60819;SDS011;46641;48.904;9.126;2022-11-20T14:14:47;0.80;;;0.80;;
60819;SDS011;46641;48.904;9.126;2022-11-20T14:19:42;0.83;;;0.80;;
60819;SDS011;46641;48.904;9.126;2022-11-20T14:24:34;1.43;;;1.10;;
60819;SDS011;46641;48.904;9.126;2022-11-20T14:29:28;2.87;;;1.00;;
60819;SDS011;46641;48.904;9.126;2022-11-20T14:34:24;1.20;;;0.80;;
60819;SDS011;46641;48.904;9.126;2022-11-20T14:39:22;1.70;;;1.00;;
60819;SDS011;46641;48.904;9.126;2022-11-20T14:44:40;0.90;;;0.90;;
60819;SDS011;46641;48.904;9.126;2022-11-20T14:49:30;1.27;;;1.13;;
60819;SDS011;46641;48.904;9.126;2022-11-20T14:54:22;1.20;;;1.10;;
60819;SDS011;46641;48.904;9.126;2022-11-20T14:59:21;1.90;;;1.00;;
60819;SDS011;46641;48.904;9.126;2022-11-20T15:04:14;1.90;;;1.27;;
60819;SDS011;46641;48.904;9.126;2022-11-20T15:09:04;2.10;;;1.30;;
60819;SDS011;46641;48.904;9.126;2022-11-20T15:14:04;2.53;;;1.40;;
60819;SDS011;46641;48.904;9.126;2022-11-20T15:18:56;1.33;;;1.23;;
60819;SDS011;46641;48.904;9.126;2022-11-20T15:23:47;1.40;;;1.30;;
60819;SDS011;46641;48.904;9.126;2022-11-20T15:28:44;1.80;;;1.53;;
60819;SDS011;46641;48.904;9.126;2022-11-20T15:33:39;2.70;;;2.43;;
60819;SDS011;46641;48.904;9.126;2022-11-20T15:38:30;6.37;;;5.30;;
60819;SDS011;46641;48.904;9.126;2022-11-20T15:43:21;6.10;;;5.50;;
60819;SDS011;46641;48.904;9.126;2022-11-20T15:48:16;4.20;;;3.60;;
60819;SDS011;46641;48.904;9.126;2022-11-20T15:53:09;3.50;;;2.53;;
60819;SDS011;46641;48.904;9.126;2022-11-20T15:58:00;2.50;;;2.30;;
60819;SDS011;46641;48.904;9.126;2022-11-20T16:02:50;3.40;;;3.10;;
60819;SDS011;46641;48.904;9.126;2022-11-20T16:07:41;4.77;;;4.37;;
60819;SDS011;46641;48.904;9.126;2022-11-20T16:12:31;7.40;;;5.18;;
60819;SDS011;46641;48.904;9.126;2022-11-20T16:17:40;4.53;;;4.13;;
60819;SDS011;46641;48.904;9.126;2022-11-20T16:22:33;17.67;;;15.77;;
60819;SDS011;46641;48.904;9.126;2022-11-20T16:27:24;18.85;;;15.48;;
60819;SDS011;46641;48.904;9.126;2022-11-20T16:32:14;5.78;;;4.18;;
60819;SDS011;46641;48.904;9.126;2022-11-20T16:37:04;6.23;;;5.23;;
60819;SDS011;46641;48.904;9.126;2022-11-20T16:41:54;3.55;;;3.22;;
60819;SDS011;46641;48.904;9.126;2022-11-20T16:46:45;5.82;;;3.88;;
60819;SDS011;46641;48.904;9.126;2022-11-20T16:51:35;5.93;;;4.18;;
60819;SDS011;46641;48.904;9.126;2022-11-20T16:56:26;6.93;;;4.73;;
60819;SDS011;46641;48.904;9.126;2022-11-20T17:01:17;6.27;;;4.77;;
60819;SDS011;46641;48.904;9.126;2022-11-20T17:06:14;12.60;;;10.63;;
60819;SDS011;46641;48.904;9.126;2022-11-20T17:11:09;18.27;;;13.40;;
60819;SDS011;46641;48.904;9.126;2022-11-20T17:16:05;45.70;;;30.77;;
60819;SDS011;46641;48.904;9.126;2022-11-20T17:20:58;6.27;;;5.73;;
60819;SDS011;46641;48.904;9.126;2022-11-20T17:25:59;4.80;;;4.40;;
60819;SDS011;46641;48.904;9.126;2022-11-20T17:31:00;5.10;;;4.70;;
60819;SDS011;46641;48.904;9.126;2022-11-20T17:35:51;4.30;;;4.00;;
60819;SDS011;46641;48.904;9.126;2022-11-20T17:40:42;5.25;;;4.85;;
60819;SDS011;46641;48.904;9.126;2022-11-20T17:45:34;4.67;;;4.30;;
60819;SDS011;46641;48.904;9.126;2022-11-20T17:50:25;5.03;;;4.63;;
60819;SDS011;46641;48.904;9.126;2022-11-20T17:55:15;5.70;;;5.00;;
60819;SDS011;46641;48.904;9.126;2022-11-20T18:00:06;5.07;;;4.50;;
60819;SDS011;46641;48.904;9.126;2022-11-20T18:04:57;2.60;;;2.40;;
60819;SDS011;46641;48.904;9.126;2022-11-20T18:09:47;2.60;;;2.40;;
60819;SDS011;46641;48.904;9.126;2022-11-20T18:14:38;2.10;;;1.90;;
60819;SDS011;46641;48.904;9.126;2022-11-20T18:19:29;2.67;;;2.33;;
60819;SDS011;46641;48.904;9.126;2022-11-20T18:24:21;2.67;;;2.47;;
60819;SDS011;46641;48.904;9.126;2022-11-20T18:29:12;17.57;;;12.63;;
60819;SDS011;46641;48.904;9.126;2022-11-20T18:34:03;23.00;;;14.17;;
60819;SDS011;46641;48.904;9.126;2022-11-20T18:38:54;5.68;;;3.95;;
60819;SDS011;46641;48.904;9.126;2022-11-20T18:43:45;2.60;;;2.30;;
60819;SDS011;46641;48.904;9.126;2022-11-20T18:48:54;3.33;;;1.93;;
60819;SDS011;46641;48.904;9.126;2022-11-20T18:53:45;1.60;;;1.50;;
60819;SDS011;46641;48.904;9.126;2022-11-20T18:58:35;2.20;;;1.60;;
60819;SDS011;46641;48.904;9.126;2022-11-20T19:03:26;1.47;;;1.37;;
60819;SDS011;46641;48.904;9.126;2022-11-20T19:08:16;1.67;;;1.57;;
60819;SDS011;46641;48.904;9.126;2022-11-20T19:13:06;2.13;;;1.50;;
60819;SDS011;46641;48.904;9.126;2022-11-20T19:17:56;1.98;;;1.60;;
60819;SDS011;46641;48.904;9.126;2022-11-20T19:22:50;1.60;;;1.50;;
60819;SDS011;46641;48.904;9.126;2022-11-20T19:27:40;2.87;;;1.50;;
60819;SDS011;46641;48.904;9.126;2022-11-20T19:32:31;2.05;;;1.80;;
60819;SDS011;46641;48.904;9.126;2022-11-20T19:37:21;2.57;;;2.07;;
60819;SDS011;46641;48.904;9.126;2022-11-20T19:42:14;2.53;;;1.20;;
60819;SDS011;46641;48.904;9.126;2022-11-20T19:47:04;1.10;;;1.00;;
60819;SDS011;46641;48.904;9.126;2022-11-20T19:51:54;1.65;;;1.05;;
60819;SDS011;46641;48.904;9.126;2022-11-20T19:56:45;1.40;;;1.30;;
60819;SDS011;46641;48.904;9.126;2022-11-20T20:01:37;0.80;;;0.77;;
60819;SDS011;46641;48.904;9.126;2022-11-20T20:06:28;1.00;;;1.00;;
60819;SDS011;46641;48.904;9.126;2022-11-20T20:11:20;1.47;;;1.37;;
60819;SDS011;46641;48.904;9.126;2022-11-20T20:16:13;1.30;;;1.20;;
60819;SDS011;46641;48.904;9.126;2022-11-20T20:21:06;0.93;;;0.83;;
60819;SDS011;46641;48.904;9.126;2022-11-20T20:25:57;0.67;;;0.67;;
60819;SDS011;46641;48.904;9.126;2022-11-20T20:30:49;0.93;;;0.80;;
60819;SDS011;46641;48.904;9.126;2022-11-20T20:35:39;0.77;;;0.77;;
60819;SDS011;46641;48.904;9.126;2022-11-20T20:40:30;0.60;;;0.60;;
60819;SDS011;46641;48.904;9.126;2022-11-20T20:45:21;0.60;;;0.60;;
60819;SDS011;46641;48.904;9.126;2022-11-20T20:50:11;0.63;;;0.63;;
60819;SDS011;46641;48.904;9.126;2022-11-20T20:55:02;0.43;;;0.43;;
60819;SDS011;46641;48.904;9.126;2022-11-20T20:59:53;0.60;;;0.60;;
60819;SDS011;46641;48.904;9.126;2022-11-20T21:04:44;0.50;;;0.50;;
60819;SDS011;46641;48.904;9.126;2022-11-20T21:09:35;1.00;;;0.50;;
60819;SDS011;46641;48.904;9.126;2022-11-20T21:14:25;0.20;;;0.20;;
60819;SDS011;46641;48.904;9.126;2022-11-20T21:19:15;0.40;;;0.40;;
60819;SDS011;46641;48.904;9.126;2022-11-20T21:24:06;0.40;;;0.40;;
60819;SDS011;46641;48.904;9.126;2022-11-20T21:28:56;0.43;;;0.43;;
60819;SDS011;46641;48.904;9.126;2022-11-20T21:33:47;0.50;;;0.50;;
60819;SDS011;46641;48.904;9.126;2022-11-20T21:38:39;0.63;;;0.50;;
60819;SDS011;46641;48.904;9.126;2022-11-20T21:43:29;0.50;;;0.50;;
60819;SDS011;46641;48.904;9.126;2022-11-20T21:48:20;0.93;;;0.47;;
60819;SDS011;46641;48.904;9.126;2022-11-20T21:53:10;0.97;;;0.47;;
60819;SDS011;46641;48.904;9.126;2022-11-20T21:58:00;0.50;;;0.50;;
60819;SDS011;46641;48.904;9.126;2022-11-20T22:02:50;0.70;;;0.60;;
60819;SDS011;46641;48.904;9.126;2022-11-20T22:07:44;0.60;;;0.60;;
60819;SDS011;46641;48.904;9.126;2022-11-20T22:12:34;0.70;;;0.70;;
60819;SDS011;46641;48.904;9.126;2022-11-20T22:17:24;1.05;;;0.70;;
60819;SDS011;46641;48.904;9.126;2022-11-20T22:22:35;0.77;;;0.77;;
60819;SDS011;46641;48.904;9.126;2022-11-20T22:27:25;0.90;;;0.90;;
60819;SDS011;46641;48.904;9.126;2022-11-20T22:32:15;0.77;;;0.77;;
60819;SDS011;46641;48.904;9.126;2022-11-20T22:37:06;0.80;;;0.80;;
60819;SDS011;46641;48.904;9.126;2022-11-20T22:41:56;1.20;;;0.83;;
60819;SDS011;46641;48.904;9.126;2022-11-20T22:46:46;0.70;;;0.70;;
60819;SDS011;46641;48.904;9.126;2022-11-20T22:51:37;3.92;;;0.93;;
60819;SDS011;46641;48.904;9.126;2022-11-20T22:56:29;1.20;;;1.13;;
60819;SDS011;46641;48.904;9.126;2022-11-20T23:01:27;1.00;;;0.90;;
60819;SDS011;46641;48.904;9.126;2022-11-20T23:06:19;0.90;;;0.90;;
60819;SDS011;46641;48.904;9.126;2022-11-20T23:11:11;0.90;;;0.83;;
60819;SDS011;46641;48.904;9.126;2022-11-20T23:16:15;0.60;;;0.60;;
60819;SDS011;46641;48.904;9.126;2022-11-20T23:26:05;0.53;;;0.50;;
60819;SDS011;46641;48.904;9.126;2022-11-20T23:31:00;1.20;;;1.20;;
60819;SDS011;46641;48.904;9.126;2022-11-20T23:35:51;1.43;;;0.60;;
60819;SDS011;46641;48.904;9.126;2022-11-20T23:40:45;0.70;;;0.70;;
60819;SDS011;46641;48.904;9.126;2022-11-20T23:45:37;1.10;;;0.60;;
60819;SDS011;46641;48.904;9.126;2022-11-20T23:50:28;1.57;;;0.63;;
60819;SDS011;46641;48.904;9.126;2022-11-20T23:55:19;0.70;;;0.70;;
